createdAt,value
2023-05-06T00:01:36.343Z,101684.22
2023-05-06T00:04:03.152Z,101683.13
2023-05-06T00:06:29.810Z,101682.88
2023-05-06T00:08:56.482Z,101684.88
2023-05-06T00:11:23.008Z,101684.13
2023-05-06T00:13:49.531Z,101682.22
2023-05-06T00:16:15.978Z,101678.03
2023-05-06T00:18:42.716Z,101676.88
2023-05-06T00:21:09.230Z,101679.22
2023-05-06T00:23:35.659Z,101670.06
2023-05-06T00:26:02.330Z,101670.72
2023-05-06T00:28:28.805Z,101681.38
2023-05-06T00:30:55.431Z,101679.06
2023-05-06T00:33:22.027Z,101676.72
2023-05-06T00:35:48.785Z,101672.47
2023-05-06T00:38:15.404Z,101671.72
2023-05-06T00:40:42.782Z,101673.56
2023-05-06T00:43:09.339Z,101662.50
2023-05-06T00:45:36.806Z,101662.50
2023-05-06T00:48:04.904Z,101664.81
2023-05-06T00:50:33.411Z,101671.72
2023-05-06T00:53:00.570Z,101665.66
2023-05-06T00:55:27.532Z,101674.41
2023-05-06T00:57:54.797Z,101675.16
2023-05-06T01:00:21.625Z,101670.91
2023-05-06T01:02:48.886Z,101671.22
2023-05-06T01:05:17.697Z,101662.81
2023-05-06T01:07:47.596Z,101656.75
2023-05-06T01:10:24.625Z,101658.25
2023-05-06T01:13:05.304Z,101658.25
2023-05-06T01:15:45.809Z,101654.09
2023-05-06T01:18:17.109Z,101650.34
2023-05-06T01:20:51.960Z,101647.69
2023-05-06T01:23:20.401Z,101656.91
2023-05-06T01:25:47.032Z,101657.41
2023-05-06T01:28:14.111Z,101647.59
2023-05-06T01:31:14.895Z,101648.34
2023-05-06T01:33:54.209Z,101644.69
2023-05-06T01:36:41.665Z,101641.34
2023-05-06T01:39:08.554Z,101647.50
2023-05-06T01:41:38.804Z,101641.53
2023-05-06T01:44:06.961Z,101634.81
2023-05-06T01:46:34.165Z,101638.28
2023-05-06T01:49:04.519Z,101641.78
2023-05-06T01:51:34.241Z,101640.41
2023-05-06T01:54:02.376Z,101646.22
2023-05-06T01:56:32.059Z,101649.69
2023-05-06T01:58:59.644Z,101648.63
2023-05-06T02:01:26.614Z,101644.88
2023-05-06T02:03:53.315Z,101651.53
2023-05-06T02:06:20.306Z,101649.63
2023-05-06T02:08:46.814Z,101651.66
2023-05-06T02:11:18.857Z,101642.19
2023-05-06T02:13:46.867Z,101646.09
2023-05-06T02:16:13.356Z,101654.47
2023-05-06T02:18:39.861Z,101656.78
2023-05-06T02:21:06.388Z,101657.28
2023-05-06T02:23:32.886Z,101661.16
2023-05-06T02:25:59.532Z,101666.22
2023-05-06T02:28:26.000Z,101664.06
2023-05-06T02:30:58.757Z,101664.78
2023-05-06T02:33:25.284Z,101659.63
2023-05-06T02:35:51.769Z,101655.06
2023-05-06T02:38:19.041Z,101656.28
2023-05-06T02:40:45.697Z,101658.19
2023-05-06T02:43:12.304Z,101656.34
2023-05-06T02:45:39.245Z,101665.94
2023-05-06T02:48:06.174Z,101662.59
2023-05-06T02:50:32.712Z,101657.34
2023-05-06T02:52:59.171Z,101655.09
2023-05-06T02:55:25.706Z,101661.22
2023-05-06T02:57:52.198Z,101660.88
2023-05-06T03:00:18.894Z,101660.53
2023-05-06T03:02:45.849Z,101658.38
2023-05-06T03:05:12.450Z,101666.81
2023-05-06T03:07:39.265Z,101663.81
2023-05-06T03:10:06.399Z,101664.63
2023-05-06T03:12:35.674Z,101653.25
2023-05-06T03:15:02.138Z,101657.81
2023-05-06T03:17:28.732Z,101651.00
2023-05-06T03:19:55.516Z,101650.31
2023-05-06T03:22:24.784Z,101647.41
2023-05-06T03:24:51.247Z,101649.69
2023-05-06T03:27:18.228Z,101647.38
2023-05-06T03:29:47.944Z,101649.69
2023-05-06T03:32:15.679Z,101654.59
2023-05-06T03:34:44.068Z,101649.72
2023-05-06T03:37:15.018Z,101652.78
2023-05-06T03:39:47.740Z,101651.28
2023-05-06T03:42:14.842Z,101654.00
2023-05-06T03:44:41.894Z,101650.25
2023-05-06T03:47:08.442Z,101655.97
2023-05-06T03:49:35.514Z,101654.91
2023-05-06T03:52:02.496Z,101661.34
2023-05-06T03:54:29.594Z,101661.00
2023-05-06T03:56:56.326Z,101652.34
2023-05-06T03:59:22.792Z,101653.50
2023-05-06T04:01:51.111Z,101654.66
2023-05-06T04:04:18.037Z,101652.00
2023-05-06T04:06:44.525Z,101652.75
2023-05-06T04:09:10.951Z,101659.97
2023-05-06T04:11:39.115Z,101660.72
2023-05-06T04:14:07.502Z,101659.56
2023-05-06T04:16:34.749Z,101661.06
2023-05-06T04:19:01.503Z,101653.03
2023-05-06T04:21:29.593Z,101646.94
2023-05-06T04:24:02.468Z,101653.66
2023-05-06T04:26:34.980Z,101642.97
2023-05-06T04:29:01.964Z,101650.13
2023-05-06T04:31:30.741Z,101649.69
2023-05-06T04:34:02.731Z,101656.44
2023-05-06T04:36:30.609Z,101654.53
2023-05-06T04:39:18.064Z,101665.09
2023-05-06T04:41:45.325Z,101680.22
2023-05-06T04:44:16.748Z,101670.69
2023-05-06T04:46:45.586Z,101674.38
2023-05-06T04:49:12.704Z,101671.25
2023-05-06T04:51:39.533Z,101676.88
2023-05-06T04:54:05.961Z,101679.81
2023-05-06T04:56:33.359Z,101682.34
2023-05-06T04:58:59.879Z,101686.13
2023-05-06T05:01:27.522Z,101685.28
2023-05-06T05:03:54.020Z,101687.50
2023-05-06T05:06:21.271Z,101688.09
2023-05-06T05:08:48.369Z,101695.19
2023-05-06T05:11:14.893Z,101693.59
2023-05-06T05:13:42.350Z,101700.28
2023-05-06T05:16:08.986Z,101706.56
2023-05-06T05:18:38.152Z,101707.66
2023-05-06T05:21:12.021Z,101715.44
2023-05-06T05:23:38.553Z,101708.56
2023-05-06T05:26:05.024Z,101710.16
2023-05-06T05:28:32.195Z,101707.75
2023-05-06T05:31:05.377Z,101704.53
2023-05-06T05:33:34.948Z,101705.00
2023-05-06T05:36:04.233Z,101709.91
2023-05-06T05:38:31.428Z,101707.25
2023-05-06T05:40:59.097Z,101704.59
2023-05-06T05:43:26.970Z,101704.81
2023-05-06T05:45:54.840Z,101702.00
2023-05-06T05:48:21.328Z,101710.66
2023-05-06T05:50:48.300Z,101711.31
2023-05-06T05:53:14.933Z,101710.47
2023-05-06T05:55:41.487Z,101713.13
2023-05-06T05:58:09.944Z,101708.88
2023-05-06T06:00:36.470Z,101710.38
2023-05-06T06:03:10.244Z,101715.94
2023-05-06T06:05:38.099Z,101716.59
2023-05-06T06:08:05.247Z,101711.19
2023-05-06T06:10:32.224Z,101715.25
2023-05-06T06:13:03.092Z,101715.56
2023-05-06T06:15:32.425Z,101707.06
2023-05-06T06:17:59.092Z,101716.38
2023-05-06T06:20:27.374Z,101717.38
2023-05-06T06:22:53.797Z,101721.44
2023-05-06T06:25:21.421Z,101731.97
2023-05-06T06:27:47.862Z,101723.03
2023-05-06T06:30:14.420Z,101719.44
2023-05-06T06:32:49.380Z,101722.38
2023-05-06T06:35:16.270Z,101720.25
2023-05-06T06:37:43.129Z,101724.31
2023-05-06T06:40:11.033Z,101719.94
2023-05-06T06:42:37.985Z,101724.31
2023-05-06T06:45:23.638Z,101725.94
2023-05-06T06:47:50.145Z,101727.31
2023-05-06T06:50:16.669Z,101730.53
2023-05-06T06:52:43.161Z,101733.84
2023-05-06T06:55:10.355Z,101733.00
2023-05-06T06:57:37.894Z,101736.28
2023-05-06T07:00:05.068Z,101744.63
2023-05-06T07:02:31.656Z,101740.25
2023-05-06T07:04:58.170Z,101745.69
2023-05-06T07:07:24.666Z,101739.59
2023-05-06T07:09:51.422Z,101738.91
2023-05-06T07:12:17.957Z,101736.00
2023-05-06T07:14:44.465Z,101740.78
2023-05-06T07:17:11.203Z,101744.06
2023-05-06T07:19:37.683Z,101742.16
2023-05-06T07:22:04.084Z,101745.44
2023-05-06T07:24:30.562Z,101750.44
2023-05-06T07:26:57.647Z,101751.91
2023-05-06T07:29:24.234Z,101751.78
2023-05-06T07:31:50.661Z,101757.00
2023-05-06T07:34:17.111Z,101751.22
2023-05-06T07:36:44.731Z,101753.50
2023-05-06T07:39:12.435Z,101742.78
2023-05-06T07:41:38.948Z,101745.50
2023-05-06T07:44:06.394Z,101743.00
2023-05-06T07:46:33.190Z,101751.06
2023-05-06T07:48:59.759Z,101755.28
2023-05-06T07:51:26.751Z,101763.94
2023-05-06T07:53:53.135Z,101750.81
2023-05-06T07:56:19.532Z,101758.97
2023-05-06T07:58:46.153Z,101755.19
2023-05-06T08:01:12.573Z,101759.38
2023-05-06T08:03:39.212Z,101761.13
2023-05-06T08:06:06.792Z,101759.13
2023-05-06T08:08:33.335Z,101757.28
2023-05-06T08:11:00.024Z,101770.97
2023-05-06T08:13:27.005Z,101767.22
2023-05-06T08:15:53.897Z,101770.22
2023-05-06T08:18:22.755Z,101766.00
2023-05-06T08:20:49.877Z,101774.38
2023-05-06T08:23:16.430Z,101775.22
2023-05-06T08:25:43.051Z,101770.97
2023-05-06T08:28:09.593Z,101776.56
2023-05-06T08:30:36.571Z,101782.06
2023-05-06T08:33:03.149Z,101779.28
2023-05-06T08:35:29.606Z,101782.31
2023-05-06T08:37:56.169Z,101779.47
2023-05-06T08:40:23.921Z,101779.88
2023-05-06T08:42:50.736Z,101781.28
2023-05-06T08:45:17.868Z,101777.66
2023-05-06T08:47:44.523Z,101776.38
2023-05-06T08:50:11.501Z,101772.06
2023-05-06T08:52:41.195Z,101774.25
2023-05-06T08:55:09.746Z,101767.72
2023-05-06T08:57:37.179Z,101770.50
2023-05-06T09:00:04.878Z,101773.19
2023-05-06T09:02:31.390Z,101772.16
2023-05-06T09:04:57.941Z,101777.16
2023-05-06T09:07:24.417Z,101767.50
2023-05-06T09:09:51.459Z,101770.28
2023-05-06T09:12:17.980Z,101764.50
2023-05-06T09:14:44.436Z,101772.97
2023-05-06T09:17:23.689Z,101766.59
2023-05-06T09:19:54.792Z,101770.13
2023-05-06T09:22:22.532Z,101763.56
2023-05-06T09:24:56.995Z,101764.25
2023-05-06T09:27:28.363Z,101764.13
2023-05-06T09:30:11.982Z,101761.09
2023-05-06T09:32:40.155Z,101753.56
2023-05-06T09:35:08.431Z,101756.22
2023-05-06T09:37:35.157Z,101751.47
2023-05-06T09:40:01.736Z,101752.50
2023-05-06T09:42:29.945Z,101749.13
2023-05-06T09:45:01.261Z,101747.09
2023-05-06T09:47:34.492Z,101740.44
2023-05-06T09:50:04.761Z,101735.81
2023-05-06T09:52:31.460Z,101747.19
2023-05-06T09:54:59.290Z,101742.66
2023-05-06T09:57:25.810Z,101739.84
2023-05-06T09:59:54.078Z,101740.44
2023-05-06T10:02:22.969Z,101736.25
2023-05-06T10:04:50.484Z,101735.66
2023-05-06T10:07:22.487Z,101742.13
2023-05-06T10:09:50.017Z,101740.22
2023-05-06T10:12:17.920Z,101739.00
2023-05-06T10:14:44.478Z,101738.31
2023-05-06T10:17:12.509Z,101730.66
2023-05-06T10:19:46.842Z,101731.16
2023-05-06T10:22:30.256Z,101735.91
2023-05-06T10:25:05.483Z,101732.16
2023-05-06T10:27:37.807Z,101730.16
2023-05-06T10:30:05.320Z,101728.94
2023-05-06T10:32:32.826Z,101722.34
2023-05-06T10:35:09.381Z,101719.44
2023-05-06T10:37:38.150Z,101727.34
2023-05-06T10:40:05.603Z,101723.19
2023-05-06T10:42:37.918Z,101722.19
2023-05-06T10:45:06.090Z,101714.81
2023-05-06T10:47:55.898Z,101715.53
2023-05-06T10:50:26.768Z,101713.34
2023-05-06T10:52:58.917Z,101707.41
2023-05-06T10:55:30.986Z,101709.88
2023-05-06T10:58:02.185Z,101713.09
2023-05-06T11:00:33.016Z,101716.50
2023-05-06T11:03:11.500Z,101716.25
2023-05-06T11:05:48.966Z,101713.44
2023-05-06T11:08:22.575Z,101716.72
2023-05-06T11:10:49.011Z,101721.19
2023-05-06T11:13:27.559Z,101715.06
2023-05-06T11:15:56.340Z,101715.78
2023-05-06T11:18:26.456Z,101710.63
2023-05-06T11:21:00.741Z,101709.88
2023-05-06T11:23:42.404Z,101702.47
2023-05-06T11:26:13.695Z,101705.38
2023-05-06T11:28:43.636Z,101706.78
2023-05-06T11:31:12.155Z,101697.09
2023-05-06T11:33:46.513Z,101704.78
2023-05-06T11:36:17.970Z,101699.94
2023-05-06T11:38:46.038Z,101696.91
2023-05-06T11:41:13.499Z,101697.91
2023-05-06T11:43:40.209Z,101696.31
2023-05-06T11:46:06.832Z,101697.97
2023-05-06T11:48:33.283Z,101691.00
2023-05-06T11:51:00.354Z,101688.19
2023-05-06T11:53:26.931Z,101682.78
2023-05-06T11:55:53.824Z,101697.63
2023-05-06T11:58:24.785Z,101692.25
2023-05-06T12:01:01.945Z,101689.13
2023-05-06T12:03:31.292Z,101698.81
2023-05-06T12:05:58.481Z,101696.66
2023-05-06T12:08:34.568Z,101694.56
2023-05-06T12:11:03.384Z,101692.91
2023-05-06T12:13:30.175Z,101696.03
2023-05-06T12:15:59.421Z,101699.34
2023-05-06T12:18:27.259Z,101687.31
2023-05-06T12:21:00.963Z,101689.19
2023-05-06T12:23:27.539Z,101686.56
2023-05-06T12:26:05.421Z,101683.56
2023-05-06T12:28:33.218Z,101691.50
2023-05-06T12:31:00.727Z,101686.66
2023-05-06T12:33:27.353Z,101685.41
2023-05-06T12:35:57.053Z,101691.44
2023-05-06T12:38:23.505Z,101696.66
2023-05-06T12:40:54.793Z,101690.34
2023-05-06T12:43:30.348Z,101687.41
2023-05-06T12:46:07.783Z,101681.06
2023-05-06T12:48:34.476Z,101674.16
2023-05-06T12:51:01.230Z,101682.91
2023-05-06T12:53:35.194Z,101676.81
2023-05-06T12:56:01.660Z,101680.41
2023-05-06T12:58:28.189Z,101678.78
2023-05-06T13:00:54.648Z,101679.88
2023-05-06T13:03:21.374Z,101679.69
2023-05-06T13:05:50.018Z,101672.13
2023-05-06T13:08:16.542Z,101674.28
2023-05-06T13:10:42.974Z,101683.34
2023-05-06T13:13:09.530Z,101679.88
2023-05-06T13:15:36.364Z,101674.44
2023-05-06T13:18:02.985Z,101678.38
2023-05-06T13:20:30.313Z,101679.16
2023-05-06T13:22:56.709Z,101675.72
2023-05-06T13:25:23.503Z,101675.69
2023-05-06T13:27:49.924Z,101674.38
2023-05-06T13:30:16.981Z,101676.56
2023-05-06T13:32:43.546Z,101675.19
2023-05-06T13:35:10.391Z,101665.19
2023-05-06T13:37:37.096Z,101668.59
2023-05-06T13:40:04.781Z,101657.72
2023-05-06T13:42:31.268Z,101658.22
2023-05-06T13:44:57.659Z,101661.44
2023-05-06T13:47:24.300Z,101649.31
2023-05-06T13:49:51.012Z,101648.78
2023-05-06T13:52:17.452Z,101643.09
2023-05-06T13:54:44.924Z,101646.69
2023-05-06T13:57:11.405Z,101648.63
2023-05-06T13:59:37.860Z,101645.81
2023-05-06T14:02:08.791Z,101648.88
2023-05-06T14:04:36.137Z,101650.56
2023-05-06T14:07:02.682Z,101638.59
2023-05-06T14:09:29.177Z,101640.56
2023-05-06T14:11:55.652Z,101636.03
2023-05-06T14:14:22.052Z,101632.13
2023-05-06T14:16:48.533Z,101636.06
2023-05-06T14:19:14.943Z,101629.66
2023-05-06T14:21:41.327Z,101622.97
2023-05-06T14:24:08.125Z,101617.47
2023-05-06T14:26:34.800Z,101627.72
2023-05-06T14:29:01.367Z,101632.31
2023-05-06T14:31:29.516Z,101621.88
2023-05-06T14:33:56.459Z,101617.84
2023-05-06T14:36:22.915Z,101617.72
2023-05-06T14:38:49.328Z,101614.97
2023-05-06T14:41:15.740Z,101613.63
2023-05-06T14:43:42.142Z,101618.72
2023-05-06T14:46:08.711Z,101609.63
2023-05-06T14:48:35.272Z,101619.16
2023-05-06T14:51:01.746Z,101614.13
2023-05-06T14:53:28.379Z,101613.97
2023-05-06T14:55:56.293Z,101605.91
2023-05-06T14:58:22.817Z,101602.44
2023-05-06T15:00:49.370Z,101606.63
2023-05-06T15:03:15.895Z,101609.91
2023-05-06T15:05:42.334Z,101610.03
2023-05-06T15:08:09.850Z,101609.78
2023-05-06T15:10:36.412Z,101611.34
2023-05-06T15:13:03.020Z,101610.41
2023-05-06T15:15:29.558Z,101613.31
2023-05-06T15:17:56.309Z,101601.19
2023-05-06T15:20:22.849Z,101608.06
2023-05-06T15:22:49.352Z,101604.84
2023-05-06T15:25:30.424Z,101609.53
2023-05-06T15:28:00.586Z,101609.81
2023-05-06T15:30:27.095Z,101605.94
2023-05-06T15:32:53.598Z,101606.97
2023-05-06T15:35:20.279Z,101604.78
2023-05-06T15:37:46.910Z,101610.94
2023-05-06T15:40:13.565Z,101609.22
2023-05-06T15:42:40.716Z,101608.72
2023-05-06T15:45:07.698Z,101606.00
2023-05-06T15:47:34.212Z,101607.22
2023-05-06T15:50:01.613Z,101605.22
2023-05-06T15:52:28.493Z,101604.50
2023-05-06T15:54:59.437Z,101602.69
2023-05-06T15:57:26.356Z,101610.84
2023-05-06T15:59:52.791Z,101609.88
2023-05-06T16:04:48.964Z,101603.84
2023-05-06T16:07:15.659Z,101609.50
2023-05-06T16:09:42.777Z,101610.47
2023-05-06T16:12:09.950Z,101603.81
2023-05-06T16:14:36.406Z,101608.50
2023-05-06T16:17:03.041Z,101605.53
2023-05-06T16:19:32.022Z,101608.50
2023-05-06T16:21:58.550Z,101610.25
2023-05-06T16:24:24.983Z,101607.31
2023-05-06T16:26:51.818Z,101607.84
2023-05-06T16:29:20.506Z,101611.34
2023-05-06T16:31:47.904Z,101605.66
2023-05-06T16:34:14.940Z,101598.78
2023-05-06T16:36:41.433Z,101603.47
2023-05-06T16:39:08.411Z,101598.06
2023-05-06T16:41:34.922Z,101607.16
2023-05-06T16:44:01.683Z,101605.94
2023-05-06T16:46:28.881Z,101605.25
2023-05-06T16:48:55.832Z,101599.09
2023-05-06T16:51:22.551Z,101595.41
2023-05-06T16:53:49.047Z,101600.81
2023-05-06T16:56:15.541Z,101608.69
2023-05-06T16:58:42.696Z,101604.03
2023-05-06T17:01:09.680Z,101606.00
2023-05-06T17:03:40.316Z,101612.66
2023-05-06T17:06:07.793Z,101607.22
2023-05-06T17:08:36.350Z,101610.41
2023-05-06T17:11:06.373Z,101606.47
2023-05-06T17:13:33.210Z,101599.34
2023-05-06T17:15:59.836Z,101601.56
2023-05-06T17:18:26.414Z,101600.56
2023-05-06T17:20:56.651Z,101605.47
2023-05-06T17:23:23.920Z,101609.41
2023-05-06T17:25:51.154Z,101601.53
2023-05-06T17:28:18.837Z,101604.47
2023-05-06T17:30:45.768Z,101606.44
2023-05-06T17:33:12.292Z,101599.06
2023-05-06T17:35:38.864Z,101598.56
2023-05-06T17:38:05.447Z,101600.78
2023-05-06T17:40:31.927Z,101595.59
2023-05-06T17:42:58.408Z,101595.59
2023-05-06T17:45:26.638Z,101607.59
2023-05-06T17:47:53.187Z,101617.47
2023-05-06T17:50:19.825Z,101610.91
2023-05-06T17:52:48.752Z,101614.41
2023-05-06T17:55:17.408Z,101625.94
2023-05-06T17:57:44.191Z,101632.91
2023-05-06T18:00:11.418Z,101625.59
2023-05-06T18:02:42.347Z,101634.47
2023-05-06T18:05:09.340Z,101643.88
2023-05-06T18:07:36.113Z,101640.91
2023-05-06T18:10:02.555Z,101645.66
2023-05-06T18:12:29.160Z,101650.88
2023-05-06T18:14:56.752Z,101651.00
2023-05-06T18:17:23.506Z,101647.41
2023-05-06T18:19:50.029Z,101648.66
2023-05-06T18:22:16.444Z,101653.69
2023-05-06T18:24:42.886Z,101651.09
2023-05-06T18:27:09.350Z,101649.97
2023-05-06T18:29:35.852Z,101647.69
2023-05-06T18:32:02.367Z,101649.34
2023-05-06T18:34:29.025Z,101653.16
2023-05-06T18:36:55.561Z,101647.94
2023-05-06T18:39:25.285Z,101652.31
2023-05-06T18:41:51.685Z,101646.28
2023-05-06T18:44:18.102Z,101647.69
2023-05-06T18:46:44.532Z,101645.72
2023-05-06T18:49:11.211Z,101648.88
2023-05-06T18:51:37.714Z,101648.78
2023-05-06T18:54:04.259Z,101643.84
2023-05-06T18:56:30.836Z,101651.81
2023-05-06T18:58:57.410Z,101645.88
2023-05-06T19:01:24.972Z,101657.66
2023-05-06T19:03:54.499Z,101653.06
2023-05-06T19:06:21.016Z,101664.13
2023-05-06T19:08:47.624Z,101672.06
2023-05-06T19:11:16.029Z,101677.91
2023-05-06T19:13:43.733Z,101670.13
2023-05-06T19:16:10.974Z,101680.72
2023-05-06T19:18:37.463Z,101671.44
2023-05-06T19:21:04.489Z,101678.31
2023-05-06T19:23:32.265Z,101673.84
2023-05-06T19:25:58.731Z,101678.19
2023-05-06T19:28:25.213Z,101682.38
2023-05-06T19:30:51.765Z,101677.16
2023-05-06T19:33:18.582Z,101682.81
2023-05-06T19:35:45.087Z,101691.03
2023-05-06T19:38:11.503Z,101690.00
2023-05-06T19:40:37.919Z,101687.75
2023-05-06T19:43:04.581Z,101685.25
2023-05-06T19:45:32.541Z,101688.41
2023-05-06T19:48:00.217Z,101684.03
2023-05-06T19:50:28.218Z,101681.53
2023-05-06T19:52:54.666Z,101673.91
2023-05-06T19:55:21.427Z,101670.94
2023-05-06T19:57:47.825Z,101677.06
2023-05-06T20:00:18.055Z,101679.47
2023-05-06T20:02:45.321Z,101676.50
2023-05-06T20:05:12.132Z,101675.91
2023-05-06T20:07:38.944Z,101679.53
2023-05-06T20:10:06.193Z,101674.63
2023-05-06T20:12:33.267Z,101687.03
2023-05-06T20:14:59.743Z,101681.06
2023-05-06T20:17:26.774Z,101684.09
2023-05-06T20:19:53.355Z,101683.06
2023-05-06T20:22:19.853Z,101681.56
2023-05-06T20:24:46.613Z,101680.25
2023-05-06T20:27:13.123Z,101678.75
2023-05-06T20:29:39.661Z,101680.88
2023-05-06T20:32:06.166Z,101675.50
2023-05-06T20:34:32.713Z,101672.97
2023-05-06T20:37:00.516Z,101675.38
2023-05-06T20:39:26.983Z,101675.81
2023-05-06T20:41:53.401Z,101681.94
2023-05-06T20:44:19.802Z,101684.31
2023-05-06T20:46:46.230Z,101682.09
2023-05-06T20:49:12.672Z,101683.03
2023-05-06T20:51:39.156Z,101670.50
2023-05-06T20:54:05.775Z,101680.97
2023-05-06T20:56:32.302Z,101690.38
2023-05-06T20:58:58.724Z,101687.53
2023-05-06T21:01:26.691Z,101680.41
2023-05-06T21:03:53.327Z,101686.50
2023-05-06T21:06:20.937Z,101681.13
2023-05-06T21:08:47.412Z,101684.56
2023-05-06T21:11:14.165Z,101675.19
2023-05-06T21:13:40.874Z,101683.56
2023-05-06T21:16:07.506Z,101677.75
2023-05-06T21:18:34.038Z,101667.19
2023-05-06T21:21:00.599Z,101670.31
2023-05-06T21:23:27.209Z,101673.44
2023-05-06T21:25:53.758Z,101660.47
2023-05-06T21:28:20.306Z,101659.28
2023-05-06T21:30:46.816Z,101665.84
2023-05-06T21:33:13.371Z,101660.94
2023-05-06T21:35:40.012Z,101653.63
2023-05-06T21:38:06.782Z,101650.19
2023-05-06T21:40:33.297Z,101652.13
2023-05-06T21:42:59.849Z,101653.03
2023-05-06T21:45:26.733Z,101652.72
2023-05-06T21:47:53.384Z,101658.41
2023-05-06T21:50:19.885Z,101666.75
2023-05-06T21:52:46.301Z,101658.13
2023-05-06T21:55:13.090Z,101666.94
2023-05-06T21:57:39.813Z,101669.47
2023-05-06T22:00:12.328Z,101664.56
2023-05-06T22:02:40.316Z,101668.44
2023-05-06T22:05:07.973Z,101672.00
2023-05-06T22:07:35.612Z,101672.91
2023-05-06T22:10:02.176Z,101668.44
2023-05-06T22:12:28.650Z,101668.13
2023-05-06T22:14:55.183Z,101676.63
2023-05-06T22:17:22.324Z,101677.06
2023-05-06T22:19:49.072Z,101673.78
2023-05-06T22:22:16.187Z,101678.09
2023-05-06T22:24:42.616Z,101673.63
2023-05-06T22:27:09.054Z,101679.88
2023-05-06T22:29:35.598Z,101670.78
2023-05-06T22:32:02.309Z,101666.34
2023-05-06T22:34:28.800Z,101672.72
2023-05-06T22:36:58.044Z,101672.28
2023-05-06T22:39:24.823Z,101672.72
2023-05-06T22:41:52.296Z,101672.47
2023-05-06T22:44:18.783Z,101671.84
2023-05-06T22:46:45.488Z,101681.84
2023-05-06T22:49:11.914Z,101686.31
2023-05-06T22:51:38.500Z,101694.19
2023-05-06T22:54:05.054Z,101684.66
2023-05-06T22:56:31.537Z,101691.97
2023-05-06T22:58:58.019Z,101683.63
2023-05-06T23:01:26.060Z,101690.19
2023-05-06T23:03:52.781Z,101683.31
2023-05-06T23:06:19.330Z,101684.81
2023-05-06T23:08:45.827Z,101680.19
2023-05-06T23:11:12.346Z,101682.59
2023-05-06T23:13:38.875Z,101684.97
2023-05-06T23:16:07.627Z,101689.72
2023-05-06T23:18:34.169Z,101684.50
2023-05-06T23:21:00.644Z,101685.69
2023-05-06T23:23:27.164Z,101694.59
2023-05-06T23:25:53.631Z,101688.66
2023-05-06T23:28:20.918Z,101689.09
2023-05-06T23:30:47.584Z,101688.03
2023-05-06T23:33:14.281Z,101690.41
2023-05-06T23:35:41.062Z,101695.31
2023-05-06T23:38:07.612Z,101685.81
2023-05-06T23:40:34.103Z,101686.38
2023-05-06T23:43:00.657Z,101677.59
2023-05-06T23:45:27.717Z,101686.94
2023-05-06T23:47:54.298Z,101687.09
2023-05-06T23:50:20.906Z,101690.22
2023-05-06T23:52:47.431Z,101691.84
2023-05-06T23:55:14.078Z,101695.72
2023-05-06T23:57:40.844Z,101686.19
